Cuba, Illinois
Current Conditions -  °F | °C
As of 1:35 AM on Sunday 26 Oct 2014 (Local Time) from KMQB Reporting Station
Clear Clear  
Wind Chill: 44°   Ceiling: Unl
Heat Index: 47°   Visibility: 10mi
Dew Point: 38°   Wind: 6mph
Humidity: 69%   Direction: 330°NNW
Pressure: 30.06"   Gusts: NA
Location:  40.49°N, 90.19°W
Report Text: KMQB 260635Z AUTO 33005KT 10SM CLR 08/03 A3006 RMK AO2 T00840031
Loading
Personal Weather Stations






























Interactive Weather Map
Tropical Storm Tracking
New forecast layout! Learn more

10-Day Weather Forecast

Advertisements
Track Severe Weather on mobile